Terminal Aerodrome Forecast
Issued by NWS

Home | Current Version | Previous Version | Text Only | Print | Product List | Glossary On
Versions: 1 2 3 4 5 6 7 8 9 10 11 12
000
FTUS46 KPDT 260536
TAFRDM
TAF
KRDM 260536Z 2606/2706 17007KT P6SM SKC
     FM261700 35007KT P6SM SKC
     FM270500 17007KT P6SM SKC=

USA.gov is the U.S. government's official web portal to all federal, state and local government web resources and services.